sensor_id;sensor_type;location;lat;lon;timestamp;pressure;altitude;pressure_sealevel;temperature;humidity
13348;BME280;6743;49.934;9.138;2022-09-27T00:01:09;98550.56;;;11.55;100.00
13348;BME280;6743;49.934;9.138;2022-09-27T00:03:35;98541.78;;;11.54;100.00
13348;BME280;6743;49.934;9.138;2022-09-27T00:06:03;98549.53;;;11.56;100.00
13348;BME280;6743;49.934;9.138;2022-09-27T00:08:30;98538.09;;;11.55;100.00
13348;BME280;6743;49.934;9.138;2022-09-27T00:10:58;98536.25;;;11.56;100.00
13348;BME280;6743;49.934;9.138;2022-09-27T00:13:25;98545.03;;;11.56;100.00
13348;BME280;6743;49.934;9.138;2022-09-27T00:15:55;98533.00;;;11.54;100.00
13348;BME280;6743;49.934;9.138;2022-09-27T00:18:21;98535.88;;;11.52;100.00
13348;BME280;6743;49.934;9.138;2022-09-27T00:20:47;98536.25;;;11.56;100.00
13348;BME280;6743;49.934;9.138;2022-09-27T00:23:13;98536.25;;;11.56;100.00
13348;BME280;6743;49.934;9.138;2022-09-27T00:25:39;98535.44;;;11.55;100.00
13348;BME280;6743;49.934;9.138;2022-09-27T00:28:06;98534.19;;;11.58;100.00
13348;BME280;6743;49.934;9.138;2022-09-27T00:30:32;98522.97;;;11.56;100.00
13348;BME280;6743;49.934;9.138;2022-09-27T00:32:58;98533.59;;;11.56;100.00
13348;BME280;6743;49.934;9.138;2022-09-27T00:35:25;98521.13;;;11.56;100.00
13348;BME280;6743;49.934;9.138;2022-09-27T00:37:51;98523.56;;;11.58;100.00
13348;BME280;6743;49.934;9.138;2022-09-27T00:40:17;98508.50;;;11.52;100.00
13348;BME280;6743;49.934;9.138;2022-09-27T00:42:48;98518.47;;;11.56;100.00
13348;BME280;6743;49.934;9.138;2022-09-27T00:45:15;98519.28;;;11.57;100.00
13348;BME280;6743;49.934;9.138;2022-09-27T00:47:47;98517.44;;;11.57;100.00
13348;BME280;6743;49.934;9.138;2022-09-27T00:50:22;98502.78;;;11.55;100.00
13348;BME280;6743;49.934;9.138;2022-09-27T00:52:54;98507.47;;;11.53;100.00
13348;BME280;6743;49.934;9.138;2022-09-27T00:55:28;98499.72;;;11.51;100.00
13348;BME280;6743;49.934;9.138;2022-09-27T00:57:55;98498.69;;;11.52;100.00
13348;BME280;6743;49.934;9.138;2022-09-27T01:00:28;98497.88;;;11.52;100.00
13348;BME280;6743;49.934;9.138;2022-09-27T01:02:55;98494.19;;;11.53;100.00
13348;BME280;6743;49.934;9.138;2022-09-27T01:05:24;98492.56;;;11.52;100.00
13348;BME280;6743;49.934;9.138;2022-09-27T01:07:53;98494.19;;;11.53;100.00
13348;BME280;6743;49.934;9.138;2022-09-27T01:10:22;98491.75;;;11.51;100.00
13348;BME280;6743;49.934;9.138;2022-09-27T01:12:57;98492.16;;;11.48;100.00
13348;BME280;6743;49.934;9.138;2022-09-27T01:15:34;98497.88;;;11.52;100.00
13348;BME280;6743;49.934;9.138;2022-09-27T01:18:20;98497.25;;;11.50;100.00
13348;BME280;6743;49.934;9.138;2022-09-27T01:23:53;98496.44;;;11.49;100.00
13348;BME280;6743;49.934;9.138;2022-09-27T01:26:41;98490.97;;;11.44;100.00
13348;BME280;6743;49.934;9.138;2022-09-27T01:29:15;98491.97;;;11.50;100.00
13348;BME280;6743;49.934;9.138;2022-09-27T01:31:48;98500.94;;;11.49;100.00
13348;BME280;6743;49.934;9.138;2022-09-27T01:34:24;98504.88;;;11.46;100.00
13348;BME280;6743;49.934;9.138;2022-09-27T01:36:55;98495.06;;;11.47;100.00
13348;BME280;6743;49.934;9.138;2022-09-27T01:39:35;98503.84;;;11.47;100.00
13348;BME280;6743;49.934;9.138;2022-09-27T01:42:11;98495.06;;;11.47;100.00
13348;BME280;6743;49.934;9.138;2022-09-27T01:44:44;98490.78;;;11.45;100.00
13348;BME280;6743;49.934;9.138;2022-09-27T01:47:15;98473.09;;;11.33;100.00
13348;BME280;6743;49.934;9.138;2022-09-27T01:49:47;98487.94;;;11.40;100.00
13348;BME280;6743;49.934;9.138;2022-09-27T01:52:20;98484.84;;;11.43;100.00
13348;BME280;6743;49.934;9.138;2022-09-27T01:54:53;98489.56;;;11.41;100.00
13348;BME280;6743;49.934;9.138;2022-09-27T01:57:24;98491.37;;;11.41;100.00
13348;BME280;6743;49.934;9.138;2022-09-27T01:59:53;98489.59;;;11.35;100.00
13348;BME280;6743;49.934;9.138;2022-09-27T02:02:25;98498.78;;;11.39;100.00
13348;BME280;6743;49.934;9.138;2022-09-27T02:04:55;98496.31;;;11.37;100.00
13348;BME280;6743;49.934;9.138;2022-09-27T02:07:27;98495.31;;;11.38;100.00
13348;BME280;6743;49.934;9.138;2022-09-27T02:10:00;98489.78;;;11.40;100.00
13348;BME280;6743;49.934;9.138;2022-09-27T02:12:30;98486.31;;;11.39;100.00
13348;BME280;6743;49.934;9.138;2022-09-27T02:15:01;98484.69;;;11.38;100.00
13348;BME280;6743;49.934;9.138;2022-09-27T02:17:35;98481.22;;;11.38;100.00
13348;BME280;6743;49.934;9.138;2022-09-27T02:20:08;98485.72;;;11.37;100.00
13348;BME280;6743;49.934;9.138;2022-09-27T02:22:40;98475.94;;;11.31;100.00
13348;BME280;6743;49.934;9.138;2022-09-27T02:25:13;98470.22;;;11.28;100.00
13348;BME280;6743;49.934;9.138;2022-09-27T02:27:50;98486.94;;;11.35;100.00
13348;BME280;6743;49.934;9.138;2022-09-27T02:30:18;98486.19;;;11.21;100.00
13348;BME280;6743;49.934;9.138;2022-09-27T02:32:45;98488.19;;;11.32;100.00
13348;BME280;6743;49.934;9.138;2022-09-27T02:35:16;98489.63;;;11.28;100.00
13348;BME280;6743;49.934;9.138;2022-09-27T02:37:43;98490.03;;;11.32;100.00
13348;BME280;6743;49.934;9.138;2022-09-27T02:40:10;98488.41;;;11.31;100.00
13348;BME280;6743;49.934;9.138;2022-09-27T02:42:36;98495.75;;;11.29;100.00
13348;BME280;6743;49.934;9.138;2022-09-27T02:45:04;98480.88;;;11.21;100.00
13348;BME280;6743;49.934;9.138;2022-09-27T02:47:52;98494.94;;;11.28;100.00
13348;BME280;6743;49.934;9.138;2022-09-27T02:50:56;98498.41;;;11.29;100.00
13348;BME280;6743;49.934;9.138;2022-09-27T02:53:36;98489.88;;;11.27;100.00
13348;BME280;6743;49.934;9.138;2022-09-27T02:56:09;98501.88;;;11.29;100.00
13348;BME280;6743;49.934;9.138;2022-09-27T02:58:47;98494.56;;;11.25;100.00
13348;BME280;6743;49.934;9.138;2022-09-27T03:01:26;98496.81;;;11.21;100.00
13348;BME280;6743;49.934;9.138;2022-09-27T03:03:59;98499.94;;;11.12;100.00
13348;BME280;6743;49.934;9.138;2022-09-27T03:06:30;98508.91;;;11.11;100.00
13348;BME280;6743;49.934;9.138;2022-09-27T03:08:57;98502.59;;;11.12;100.00
13348;BME280;6743;49.934;9.138;2022-09-27T03:11:23;98491.97;;;11.12;100.00
13348;BME280;6743;49.934;9.138;2022-09-27T03:13:50;98501.56;;;11.13;100.00
13348;BME280;6743;49.934;9.138;2022-09-27T03:16:16;98490.34;;;11.11;100.00
13348;BME280;6743;49.934;9.138;2022-09-27T03:18:42;98496.66;;;11.10;100.00
13348;BME280;6743;49.934;9.138;2022-09-27T03:21:09;98500.34;;;11.09;100.00
13348;BME280;6743;49.934;9.138;2022-09-27T03:23:35;98494.44;;;11.00;100.00
13348;BME280;6743;49.934;9.138;2022-09-27T03:26:01;98502.00;;;11.03;100.00
13348;BME280;6743;49.934;9.138;2022-09-27T03:28:27;98501.59;;;11.06;100.00
13348;BME280;6743;49.934;9.138;2022-09-27T03:30:54;98506.47;;;11.09;100.00
13348;BME280;6743;49.934;9.138;2022-09-27T03:33:20;98508.31;;;11.02;100.00
13348;BME280;6743;49.934;9.138;2022-09-27T03:35:46;98510.16;;;11.01;100.00
13348;BME280;6743;49.934;9.138;2022-09-27T03:38:13;98505.88;;;11.00;100.00
13348;BME280;6743;49.934;9.138;2022-09-27T03:40:39;98507.31;;;11.03;100.00
13348;BME280;6743;49.934;9.138;2022-09-27T03:43:05;98481.22;;;10.93;100.00
13348;BME280;6743;49.934;9.138;2022-09-27T03:45:32;98500.37;;;11.02;100.00
13348;BME280;6743;49.934;9.138;2022-09-27T03:47:58;98506.31;;;10.97;100.00
13348;BME280;6743;49.934;9.138;2022-09-27T03:50:24;98513.03;;;10.93;100.00
13348;BME280;6743;49.934;9.138;2022-09-27T03:52:50;98514.09;;;10.92;100.00
13348;BME280;6743;49.934;9.138;2022-09-27T03:55:17;98511.03;;;10.89;100.00
13348;BME280;6743;49.934;9.138;2022-09-27T03:57:44;98513.06;;;10.87;100.00
13348;BME280;6743;49.934;9.138;2022-09-27T04:00:12;98521.84;;;10.81;100.00
13348;BME280;6743;49.934;9.138;2022-09-27T04:02:38;98520.66;;;10.77;100.00
13348;BME280;6743;49.934;9.138;2022-09-27T04:05:05;98521.28;;;10.65;100.00
13348;BME280;6743;49.934;9.138;2022-09-27T04:07:31;98524.56;;;10.61;100.00
13348;BME280;6743;49.934;9.138;2022-09-27T04:09:57;98521.94;;;10.54;100.00
13348;BME280;6743;49.934;9.138;2022-09-27T04:12:24;98527.03;;;10.56;100.00
13348;BME280;6743;49.934;9.138;2022-09-27T04:14:50;98535.81;;;10.56;100.00
13348;BME280;6743;49.934;9.138;2022-09-27T04:17:16;98534.16;;;10.55;100.00
13348;BME280;6743;49.934;9.138;2022-09-27T04:19:42;98532.34;;;10.49;100.00
13348;BME280;6743;49.934;9.138;2022-09-27T04:22:08;98540.06;;;10.44;100.00
13348;BME280;6743;49.934;9.138;2022-09-27T04:24:35;98541.94;;;10.44;100.00
13348;BME280;6743;49.934;9.138;2022-09-27T04:27:01;98545.81;;;10.41;100.00
13348;BME280;6743;49.934;9.138;2022-09-27T04:29:28;98548.84;;;10.38;100.00
13348;BME280;6743;49.934;9.138;2022-09-27T04:31:54;98540.50;;;10.28;100.00
13348;BME280;6743;49.934;9.138;2022-09-27T04:34:20;98557.03;;;10.30;100.00
13348;BME280;6743;49.934;9.138;2022-09-27T04:37:07;98565.19;;;10.29;100.00
13348;BME280;6743;49.934;9.138;2022-09-27T04:39:33;98565.38;;;10.27;100.00
13348;BME280;6743;49.934;9.138;2022-09-27T04:42:01;98569.03;;;10.26;100.00
13348;BME280;6743;49.934;9.138;2022-09-27T04:44:28;98569.03;;;10.19;100.00
13348;BME280;6743;49.934;9.138;2022-09-27T04:46:54;98577.00;;;10.19;100.00
13348;BME280;6743;49.934;9.138;2022-09-27T04:49:20;98581.47;;;10.19;100.00
13348;BME280;6743;49.934;9.138;2022-09-27T04:51:46;98588.59;;;10.18;100.00
13348;BME280;6743;49.934;9.138;2022-09-27T04:54:13;98584.72;;;10.14;100.00
13348;BME280;6743;49.934;9.138;2022-09-27T04:56:39;98585.09;;;10.05;100.00
13348;BME280;6743;49.934;9.138;2022-09-27T04:59:05;98602.25;;;10.09;100.00
13348;BME280;6743;49.934;9.138;2022-09-27T05:01:32;98607.53;;;10.09;100.00
13348;BME280;6743;49.934;9.138;2022-09-27T05:03:58;98603.63;;;10.05;100.00
13348;BME280;6743;49.934;9.138;2022-09-27T05:06:24;98617.50;;;10.07;100.00
13348;BME280;6743;49.934;9.138;2022-09-27T05:08:50;98618.31;;;10.07;100.00
13348;BME280;6743;49.934;9.138;2022-09-27T05:11:16;98623.44;;;10.09;100.00
13348;BME280;6743;49.934;9.138;2022-09-27T05:13:42;98627.09;;;10.08;100.00
13348;BME280;6743;49.934;9.138;2022-09-27T05:16:08;98635.03;;;10.08;100.00
13348;BME280;6743;49.934;9.138;2022-09-27T05:18:36;98638.09;;;10.11;100.00
13348;BME280;6743;49.934;9.138;2022-09-27T05:21:02;98642.38;;;10.12;100.00
13348;BME280;6743;49.934;9.138;2022-09-27T05:23:28;98627.06;;;9.95;100.00
13348;BME280;6743;49.934;9.138;2022-09-27T05:25:54;98648.69;;;10.05;100.00
13348;BME280;6743;49.934;9.138;2022-09-27T05:28:21;98653.75;;;10.00;100.00
13348;BME280;6743;49.934;9.138;2022-09-27T05:30:48;98646.00;;;9.98;100.00
13348;BME280;6743;49.934;9.138;2022-09-27T05:33:14;98653.13;;;9.98;100.00
13348;BME280;6743;49.934;9.138;2022-09-27T05:35:41;98644.78;;;9.94;100.00
13348;BME280;6743;49.934;9.138;2022-09-27T05:38:11;98638.47;;;9.88;100.00
13348;BME280;6743;49.934;9.138;2022-09-27T05:40:37;98652.13;;;9.92;100.00
13348;BME280;6743;49.934;9.138;2022-09-27T05:43:06;98652.31;;;9.97;100.00
13348;BME280;6743;49.934;9.138;2022-09-27T05:45:32;98660.91;;;9.99;100.00
13348;BME280;6743;49.934;9.138;2022-09-27T05:47:58;98660.06;;;9.99;100.00
13348;BME280;6743;49.934;9.138;2022-09-27T05:50:25;98656.22;;;10.01;100.00
13348;BME280;6743;49.934;9.138;2022-09-27T05:52:52;98668.66;;;10.07;100.00
13348;BME280;6743;49.934;9.138;2022-09-27T05:55:19;98666.84;;;10.08;100.00
13348;BME280;6743;49.934;9.138;2022-09-27T05:57:56;98666.84;;;10.08;100.00
13348;BME280;6743;49.934;9.138;2022-09-27T06:00:23;98674.97;;;10.06;100.00
13348;BME280;6743;49.934;9.138;2022-09-27T06:02:54;98677.00;;;10.11;100.00
13348;BME280;6743;49.934;9.138;2022-09-27T06:05:21;98659.28;;;10.05;100.00
13348;BME280;6743;49.934;9.138;2022-09-27T06:07:47;98698.66;;;10.14;100.00
13348;BME280;6743;49.934;9.138;2022-09-27T06:10:15;98692.34;;;10.15;100.00
13348;BME280;6743;49.934;9.138;2022-09-27T06:12:41;98687.66;;;10.17;100.00
13348;BME280;6743;49.934;9.138;2022-09-27T06:15:07;98697.81;;;10.14;100.00
13348;BME280;6743;49.934;9.138;2022-09-27T06:17:34;98689.69;;;10.15;100.00
13348;BME280;6743;49.934;9.138;2022-09-27T06:20:00;98697.63;;;10.15;100.00
13348;BME280;6743;49.934;9.138;2022-09-27T06:22:26;98699.03;;;10.11;100.00
13348;BME280;6743;49.934;9.138;2022-09-27T06:24:52;98707.59;;;10.13;100.00
13348;BME280;6743;49.934;9.138;2022-09-27T06:27:19;98700.09;;;10.17;100.00
13348;BME280;6743;49.934;9.138;2022-09-27T06:29:45;98691.91;;;10.12;100.00
13348;BME280;6743;49.934;9.138;2022-09-27T06:32:11;98709.28;;;10.21;100.00
13348;BME280;6743;49.934;9.138;2022-09-27T06:34:38;98710.72;;;10.23;100.00
13348;BME280;6743;49.934;9.138;2022-09-27T06:37:04;98709.28;;;10.21;100.00
13348;BME280;6743;49.934;9.138;2022-09-27T06:39:30;98701.75;;;10.24;100.00
13348;BME280;6743;49.934;9.138;2022-09-27T06:41:57;98704.00;;;10.21;100.00
13348;BME280;6743;49.934;9.138;2022-09-27T06:44:25;98710.31;;;10.20;100.00
13348;BME280;6743;49.934;9.138;2022-09-27T06:46:51;98724.38;;;10.27;100.00
13348;BME280;6743;49.934;9.138;2022-09-27T06:49:17;98729.31;;;10.30;100.00
13348;BME280;6743;49.934;9.138;2022-09-27T06:51:44;98717.66;;;10.24;100.00
13348;BME280;6743;49.934;9.138;2022-09-27T06:54:10;98726.25;;;10.33;100.00
13348;BME280;6743;49.934;9.138;2022-09-27T06:56:36;98729.31;;;10.37;100.00
13348;BME280;6743;49.934;9.138;2022-09-27T06:59:02;98731.97;;;10.37;100.00
13348;BME280;6743;49.934;9.138;2022-09-27T07:01:44;98738.69;;;10.39;100.00
13348;BME280;6743;49.934;9.138;2022-09-27T07:04:10;98744.00;;;10.39;100.00
13348;BME280;6743;49.934;9.138;2022-09-27T07:06:37;98751.13;;;10.39;100.00
13348;BME280;6743;49.934;9.138;2022-09-27T07:09:04;98749.28;;;10.39;100.00
13348;BME280;6743;49.934;9.138;2022-09-27T07:11:31;98747.06;;;10.36;100.00
13348;BME280;6743;49.934;9.138;2022-09-27T07:13:59;98762.97;;;10.43;100.00
13348;BME280;6743;49.934;9.138;2022-09-27T07:16:26;98764.63;;;10.44;100.00
13348;BME280;6743;49.934;9.138;2022-09-27T07:18:53;98771.12;;;10.48;100.00
13348;BME280;6743;49.934;9.138;2022-09-27T07:21:19;98778.66;;;10.44;100.00
13348;BME280;6743;49.934;9.138;2022-09-27T07:23:45;98769.91;;;10.44;100.00
13348;BME280;6743;49.934;9.138;2022-09-27T07:26:11;98776.00;;;10.44;100.00
13348;BME280;6743;49.934;9.138;2022-09-27T07:28:37;98774.19;;;10.45;100.00
13348;BME280;6743;49.934;9.138;2022-09-27T07:31:06;98788.69;;;10.49;100.00
13348;BME280;6743;49.934;9.138;2022-09-27T07:33:33;98780.94;;;10.47;100.00
13348;BME280;6743;49.934;9.138;2022-09-27T07:36:05;98784.59;;;10.46;100.00
13348;BME280;6743;49.934;9.138;2022-09-27T07:38:32;98794.81;;;10.49;100.00
13348;BME280;6743;49.934;9.138;2022-09-27T07:40:58;98803.34;;;10.51;100.00
13348;BME280;6743;49.934;9.138;2022-09-27T07:43:25;98807.03;;;10.50;100.00
13348;BME280;6743;49.934;9.138;2022-09-27T07:45:51;98807.81;;;10.44;100.00
13348;BME280;6743;49.934;9.138;2022-09-27T07:48:20;98800.91;;;10.43;100.00
13348;BME280;6743;49.934;9.138;2022-09-27T07:50:47;98811.72;;;10.48;100.00
13348;BME280;6743;49.934;9.138;2022-09-27T07:53:13;98792.31;;;10.41;100.00
13348;BME280;6743;49.934;9.138;2022-09-27T07:55:40;98819.25;;;10.45;100.00
13348;BME280;6743;49.934;9.138;2022-09-27T07:58:08;98794.34;;;10.39;100.00
13348;BME280;6743;49.934;9.138;2022-09-27T08:00:36;98820.91;;;10.52;100.00
13348;BME280;6743;49.934;9.138;2022-09-27T08:03:06;98832.12;;;10.54;100.00
13348;BME280;6743;49.934;9.138;2022-09-27T08:05:33;98808.44;;;10.46;100.00
13348;BME280;6743;49.934;9.138;2022-09-27T08:08:00;98835.81;;;10.60;100.00
13348;BME280;6743;49.934;9.138;2022-09-27T08:10:28;98827.87;;;10.60;100.00
13348;BME280;6743;49.934;9.138;2022-09-27T08:12:55;98826.44;;;10.57;100.00
13348;BME280;6743;49.934;9.138;2022-09-27T08:15:21;98834.63;;;10.62;100.00
13348;BME280;6743;49.934;9.138;2022-09-27T08:17:47;98843.16;;;10.58;100.00
13348;BME280;6743;49.934;9.138;2022-09-27T08:20:13;98843.97;;;10.65;100.00
13348;BME280;6743;49.934;9.138;2022-09-27T08:22:41;98846.22;;;10.61;100.00
13348;BME280;6743;49.934;9.138;2022-09-27T08:25:08;98849.09;;;10.66;100.00
13348;BME280;6743;49.934;9.138;2022-09-27T08:27:36;98858.91;;;10.73;100.00
13348;BME280;6743;49.934;9.138;2022-09-27T08:30:02;98858.31;;;10.71;100.00
13348;BME280;6743;49.934;9.138;2022-09-27T08:32:28;98858.91;;;10.73;100.00
13348;BME280;6743;49.934;9.138;2022-09-27T08:34:55;98857.50;;;10.77;100.00
13348;BME280;6743;49.934;9.138;2022-09-27T08:37:21;98862.81;;;10.83;100.00
13348;BME280;6743;49.934;9.138;2022-09-27T08:39:47;98859.97;;;10.78;100.00
13348;BME280;6743;49.934;9.138;2022-09-27T08:42:23;98876.72;;;10.85;100.00
13348;BME280;6743;49.934;9.138;2022-09-27T08:45:00;98868.75;;;10.85;100.00
13348;BME280;6743;49.934;9.138;2022-09-27T08:47:32;98874.28;;;10.90;100.00
13348;BME280;6743;49.934;9.138;2022-09-27T08:50:02;98867.97;;;10.98;100.00
13348;BME280;6743;49.934;9.138;2022-09-27T08:52:31;98885.94;;;11.02;100.00
13348;BME280;6743;49.934;9.138;2022-09-27T08:55:03;98884.91;;;11.03;100.00
13348;BME280;6743;49.934;9.138;2022-09-27T08:57:31;98880.63;;;11.09;100.00
13348;BME280;6743;49.934;9.138;2022-09-27T09:00:02;98895.94;;;11.07;100.00
13348;BME280;6743;49.934;9.138;2022-09-27T09:02:30;98885.94;;;11.09;100.00
13348;BME280;6743;49.934;9.138;2022-09-27T09:04:59;98887.38;;;11.12;100.00
13348;BME280;6743;49.934;9.138;2022-09-27T09:07:45;98877.38;;;11.14;100.00
13348;BME280;6743;49.934;9.138;2022-09-27T09:10:32;98898.59;;;11.20;100.00
13348;BME280;6743;49.934;9.138;2022-09-27T09:13:41;98901.69;;;11.24;100.00
13348;BME280;6743;49.934;9.138;2022-09-27T09:16:18;98892.91;;;11.30;100.00
13348;BME280;6743;49.934;9.138;2022-09-27T09:18:58;98892.53;;;11.33;100.00
13348;BME280;6743;49.934;9.138;2022-09-27T09:21:32;98895.56;;;11.36;100.00
13348;BME280;6743;49.934;9.138;2022-09-27T09:24:28;98892.28;;;11.34;100.00
13348;BME280;6743;49.934;9.138;2022-09-27T09:27:03;98895.56;;;11.36;100.00
13348;BME280;6743;49.934;9.138;2022-09-27T09:29:46;98901.09;;;11.41;100.00
13348;BME280;6743;49.934;9.138;2022-09-27T09:32:26;98898.03;;;11.38;100.00
13348;BME280;6743;49.934;9.138;2022-09-27T09:34:59;98902.13;;;11.40;100.00
13348;BME280;6743;49.934;9.138;2022-09-27T09:37:34;98888.63;;;11.49;100.00
13348;BME280;6743;49.934;9.138;2022-09-27T09:40:04;98895.00;;;11.54;100.00
13348;BME280;6743;49.934;9.138;2022-09-27T09:42:41;98883.56;;;11.54;100.00
13348;BME280;6743;49.934;9.138;2022-09-27T09:45:17;98880.06;;;11.53;100.00
13348;BME280;6743;49.934;9.138;2022-09-27T09:47:48;98882.72;;;11.60;100.00
13348;BME280;6743;49.934;9.138;2022-09-27T09:50:18;98871.91;;;11.55;100.00
13348;BME280;6743;49.934;9.138;2022-09-27T09:52:49;98889.69;;;11.67;100.00
13348;BME280;6743;49.934;9.138;2022-09-27T09:55:19;98887.41;;;11.71;100.00
13348;BME280;6743;49.934;9.138;2022-09-27T09:57:55;98864.13;;;11.60;100.00
13348;BME280;6743;49.934;9.138;2022-09-27T10:00:24;98868.44;;;11.74;100.00
13348;BME280;6743;49.934;9.138;2022-09-27T10:02:53;98876.22;;;11.75;100.00
13348;BME280;6743;49.934;9.138;2022-09-27T10:05:21;98872.91;;;11.73;100.00
13348;BME280;6743;49.934;9.138;2022-09-27T10:07:50;98870.47;;;11.78;100.00
13348;BME280;6743;49.934;9.138;2022-09-27T10:10:18;98865.97;;;11.86;100.00
13348;BME280;6743;49.934;9.138;2022-09-27T10:12:46;98857.59;;;11.95;100.00
13348;BME280;6743;49.934;9.138;2022-09-27T10:15:16;98860.41;;;12.07;100.00
13348;BME280;6743;49.934;9.138;2022-09-27T10:17:46;98869.59;;;12.17;100.00
13348;BME280;6743;49.934;9.138;2022-09-27T10:20:23;98852.59;;;12.25;100.00
13348;BME280;6743;49.934;9.138;2022-09-27T10:22:53;98850.34;;;12.29;100.00
13348;BME280;6743;49.934;9.138;2022-09-27T10:25:21;98844.19;;;12.28;100.00
13348;BME280;6743;49.934;9.138;2022-09-27T10:27:49;98855.44;;;12.37;100.00
13348;BME280;6743;49.934;9.138;2022-09-27T10:30:22;98857.84;;;12.38;100.00
13348;BME280;6743;49.934;9.138;2022-09-27T10:32:51;98850.13;;;12.37;100.00
13348;BME280;6743;49.934;9.138;2022-09-27T10:35:21;98856.44;;;12.42;100.00
13348;BME280;6743;49.934;9.138;2022-09-27T10:38:15;98855.41;;;12.43;100.00
13348;BME280;6743;49.934;9.138;2022-09-27T10:40:46;98860.50;;;12.45;100.00
13348;BME280;6743;49.934;9.138;2022-09-27T10:43:24;98860.94;;;12.42;100.00
13348;BME280;6743;49.934;9.138;2022-09-27T10:46:03;98849.91;;;12.32;100.00
13348;BME280;6743;49.934;9.138;2022-09-27T10:48:30;98847.47;;;12.30;100.00
13348;BME280;6743;49.934;9.138;2022-09-27T10:50:58;98842.16;;;12.30;100.00
13348;BME280;6743;49.934;9.138;2022-09-27T10:53:26;98842.78;;;12.19;100.00
13348;BME280;6743;49.934;9.138;2022-09-27T10:55:54;98849.53;;;12.28;100.00
13348;BME280;6743;49.934;9.138;2022-09-27T10:58:25;98852.00;;;12.23;100.00
13348;BME280;6743;49.934;9.138;2022-09-27T11:00:56;98859.34;;;12.21;100.00
13348;BME280;6743;49.934;9.138;2022-09-27T11:03:26;98867.97;;;12.16;100.00
13348;BME280;6743;49.934;9.138;2022-09-27T11:05:53;98859.78;;;12.11;100.00
13348;BME280;6743;49.934;9.138;2022-09-27T11:08:24;98858.56;;;12.07;100.00
13348;BME280;6743;49.934;9.138;2022-09-27T11:11:06;98860.63;;;12.05;100.00
13348;BME280;6743;49.934;9.138;2022-09-27T11:13:43;98857.34;;;12.03;100.00
13348;BME280;6743;49.934;9.138;2022-09-27T11:16:38;98851.25;;;12.03;100.00
13348;BME280;6743;49.934;9.138;2022-09-27T11:19:13;98856.13;;;12.06;100.00
13348;BME280;6743;49.934;9.138;2022-09-27T11:21:48;98854.69;;;12.03;100.00
13348;BME280;6743;49.934;9.138;2022-09-27T11:24:29;98846.72;;;11.97;100.00
13348;BME280;6743;49.934;9.138;2022-09-27T11:27:08;98841.41;;;12.03;100.00
13348;BME280;6743;49.934;9.138;2022-09-27T11:29:44;98845.69;;;12.11;100.00
13348;BME280;6743;49.934;9.138;2022-09-27T11:32:26;98832.97;;;12.19;100.00
13348;BME280;6743;49.934;9.138;2022-09-27T11:35:07;98834.16;;;12.37;100.00
13348;BME280;6743;49.934;9.138;2022-09-27T11:37:43;98831.44;;;12.50;100.00
13348;BME280;6743;49.934;9.138;2022-09-27T11:40:21;98825.88;;;12.58;100.00
13348;BME280;6743;49.934;9.138;2022-09-27T11:43:10;98832.41;;;12.62;100.00
13348;BME280;6743;49.934;9.138;2022-09-27T11:45:49;98827.69;;;12.64;100.00
13348;BME280;6743;49.934;9.138;2022-09-27T11:48:27;98833.41;;;12.61;100.00
13348;BME280;6743;49.934;9.138;2022-09-27T11:51:07;98827.28;;;12.60;100.00
13348;BME280;6743;49.934;9.138;2022-09-27T11:53:51;98819.50;;;12.59;100.00
13348;BME280;6743;49.934;9.138;2022-09-27T11:56:34;98824.00;;;12.58;100.00
13348;BME280;6743;49.934;9.138;2022-09-27T11:59:19;98817.91;;;12.58;100.00
13348;BME280;6743;49.934;9.138;2022-09-27T12:01:52;98816.47;;;12.55;100.00
13348;BME280;6743;49.934;9.138;2022-09-27T12:04:38;98812.56;;;12.58;100.00
13348;BME280;6743;49.934;9.138;2022-09-27T12:07:15;98815.41;;;12.63;100.00
13348;BME280;6743;49.934;9.138;2022-09-27T12:09:49;98806.41;;;12.64;100.00
13348;BME280;6743;49.934;9.138;2022-09-27T12:12:19;98815.75;;;12.73;100.00
13348;BME280;6743;49.934;9.138;2022-09-27T12:14:49;98815.34;;;12.76;100.00
13348;BME280;6743;49.934;9.138;2022-09-27T12:17:22;98820.25;;;12.73;100.00
13348;BME280;6743;49.934;9.138;2022-09-27T12:19:51;98818.59;;;12.78;100.00
13348;BME280;6743;49.934;9.138;2022-09-27T12:22:22;98809.41;;;12.74;100.00
13348;BME280;6743;49.934;9.138;2022-09-27T12:24:51;98787.16;;;12.62;100.00
13348;BME280;6743;49.934;9.138;2022-09-27T12:27:26;98805.09;;;12.73;100.00
13348;BME280;6743;49.934;9.138;2022-09-27T12:29:55;98798.75;;;12.74;100.00
13348;BME280;6743;49.934;9.138;2022-09-27T12:32:25;98805.88;;;12.80;100.00
13348;BME280;6743;49.934;9.138;2022-09-27T12:34:58;98799.31;;;12.83;100.00
13348;BME280;6743;49.934;9.138;2022-09-27T12:37:29;98795.81;;;12.89;100.00
13348;BME280;6743;49.934;9.138;2022-09-27T12:39:59;98807.06;;;12.91;100.00
13348;BME280;6743;49.934;9.138;2022-09-27T12:42:32;98795.38;;;12.92;100.00
13348;BME280;6743;49.934;9.138;2022-09-27T12:45:01;98808.84;;;12.97;100.00
13348;BME280;6743;49.934;9.138;2022-09-27T12:47:41;98798.56;;;13.00;100.00
13348;BME280;6743;49.934;9.138;2022-09-27T12:50:16;98796.31;;;13.04;100.00
13348;BME280;6743;49.934;9.138;2022-09-27T12:52:49;98787.66;;;13.09;100.00
13348;BME280;6743;49.934;9.138;2022-09-27T13:01:35;98791.75;;;13.11;100.00
13348;BME280;6743;49.934;9.138;2022-09-27T13:04:27;98785.22;;;13.14;100.00
13348;BME280;6743;49.934;9.138;2022-09-27T13:07:16;98776.41;;;13.13;100.00
13348;BME280;6743;49.934;9.138;2022-09-27T13:09:58;98782.75;;;13.12;100.00
13348;BME280;6743;49.934;9.138;2022-09-27T13:12:28;98769.47;;;13.06;100.00
13348;BME280;6743;49.934;9.138;2022-09-27T13:15:02;98775.63;;;13.06;100.00
13348;BME280;6743;49.934;9.138;2022-09-27T13:17:34;98785.25;;;13.00;100.00
13348;BME280;6743;49.934;9.138;2022-09-27T13:20:43;98775.28;;;12.96;100.00
13348;BME280;6743;49.934;9.138;2022-09-27T13:26:48;98779.41;;;12.92;100.00
13348;BME280;6743;49.934;9.138;2022-09-27T13:29:35;98773.94;;;12.80;100.00
13348;BME280;6743;49.934;9.138;2022-09-27T13:32:14;98787.25;;;12.80;100.00